Aviation Digital Data Service (ADDS)

Output produced by METARs form (1535 UTC 26 September 2016)
found at http://aviationweather.gov/adds/metars/
 
KROC 261503Z 2615/2712 17011KT P6SM SCT180 OVC250 
     FM262000 18012G18KT P6SM VCSH OVC040 
     FM262300 20010KT 4SM SHRA VCTS SCT015 OVC025CB 
     FM270200 22010G18KT P6SM SCT025 BKN040 
     FM270600 23010KT P6SM SCT250